createdAt,value
2023-02-06T00:01:31.654Z,-6.20
2023-02-06T00:03:59.751Z,-6.20
2023-02-06T00:06:28.192Z,-6.30
2023-02-06T00:08:56.348Z,-6.30
2023-02-06T00:11:25.057Z,-6.30
2023-02-06T00:13:53.567Z,-6.20
2023-02-06T00:16:26.446Z,-6.28
2023-02-06T00:18:56.385Z,-6.24
2023-02-06T00:21:26.212Z,-6.30
2023-02-06T00:23:56.339Z,-6.30
2023-02-06T00:26:24.746Z,-6.36
2023-02-06T00:28:52.925Z,-6.40
2023-02-06T00:31:21.112Z,-6.38
2023-02-06T00:33:49.196Z,-6.34
2023-02-06T00:36:17.233Z,-6.40
2023-02-06T00:38:45.618Z,-6.40
2023-02-06T00:41:15.229Z,-6.40
2023-02-06T00:43:43.763Z,-6.42
2023-02-06T00:46:11.919Z,-6.42
2023-02-06T00:48:40.153Z,-6.40
2023-02-06T00:51:08.134Z,-6.48
2023-02-06T00:53:38.670Z,-6.44
2023-02-06T00:56:06.929Z,-6.50
2023-02-06T00:58:35.013Z,-6.48
2023-02-06T01:01:04.399Z,-6.54
2023-02-06T01:03:32.569Z,-6.50
2023-02-06T01:06:00.750Z,-6.50
2023-02-06T01:08:28.918Z,-6.50
2023-02-06T01:10:57.187Z,-6.50
2023-02-06T01:13:25.169Z,-6.50
2023-02-06T01:15:53.260Z,-6.50
2023-02-06T01:18:21.307Z,-6.50
2023-02-06T01:20:49.671Z,-6.44
2023-02-06T01:23:17.845Z,-6.50
2023-02-06T01:25:46.228Z,-6.50
2023-02-06T01:28:14.344Z,-6.56
2023-02-06T01:30:42.509Z,-6.60
2023-02-06T01:33:10.570Z,-6.60
2023-02-06T01:35:38.489Z,-6.60
2023-02-06T01:38:08.724Z,-6.60
2023-02-06T01:40:36.799Z,-6.60
2023-02-06T01:43:08.915Z,-6.62
2023-02-06T01:45:44.637Z,-6.70
2023-02-06T01:48:18.144Z,-6.70
2023-02-06T01:50:52.165Z,-6.70
2023-02-06T01:53:20.199Z,-6.60
2023-02-06T01:55:48.986Z,-6.70
2023-02-06T01:58:19.990Z,-6.70
2023-02-06T02:00:48.091Z,-6.78
2023-02-06T02:03:16.063Z,-6.80
2023-02-06T02:05:44.758Z,-6.88
2023-02-06T02:08:17.607Z,-6.88
2023-02-06T02:10:45.700Z,-6.80
2023-02-06T02:13:14.083Z,-6.80
2023-02-06T02:15:52.501Z,-6.80
2023-02-06T02:18:46.171Z,-6.80
2023-02-06T02:21:48.547Z,-6.84
2023-02-06T02:24:34.548Z,-6.84
2023-02-06T02:27:11.519Z,-6.82
2023-02-06T02:29:58.187Z,-6.90
2023-02-06T02:32:58.045Z,-6.90
2023-02-06T02:35:34.562Z,-6.86
2023-02-06T02:38:13.989Z,-6.90
2023-02-06T02:41:11.793Z,-6.90
2023-02-06T02:43:45.389Z,-6.88
2023-02-06T02:46:36.125Z,-6.90
2023-02-06T02:49:22.254Z,-6.90
2023-02-06T02:51:50.698Z,-6.90
2023-02-06T02:54:18.941Z,-6.98
2023-02-06T02:56:48.058Z,-7.00
2023-02-06T02:59:24.320Z,-7.00
2023-02-06T03:01:56.281Z,-6.98
2023-02-06T03:04:35.247Z,-7.00
2023-02-06T03:07:13.470Z,-7.00
2023-02-06T03:09:59.342Z,-7.00
2023-02-06T03:12:48.242Z,-7.00
2023-02-06T03:15:27.064Z,-7.00
2023-02-06T03:18:08.730Z,-7.00
2023-02-06T03:20:37.604Z,-7.00
2023-02-06T03:23:09.673Z,-6.98
2023-02-06T03:25:43.228Z,-6.90
2023-02-06T03:28:19.216Z,-6.90
2023-02-06T03:30:50.544Z,-6.90
2023-02-06T03:33:23.728Z,-6.80
2023-02-06T03:35:52.377Z,-6.80
2023-02-06T03:38:20.892Z,-6.80
2023-02-06T03:40:48.864Z,-6.80
2023-02-06T03:43:18.930Z,-6.80
2023-02-06T03:45:51.995Z,-6.80
2023-02-06T03:48:25.064Z,-6.80
2023-02-06T03:50:54.487Z,-6.80
2023-02-06T03:53:22.834Z,-6.90
2023-02-06T03:55:50.873Z,-6.90
2023-02-06T03:58:18.932Z,-6.90
2023-02-06T04:00:47.063Z,-6.94
2023-02-06T04:03:15.128Z,-7.00
2023-02-06T04:05:43.103Z,-6.92
2023-02-06T04:08:11.152Z,-6.94
2023-02-06T04:10:39.437Z,-6.90
2023-02-06T04:13:07.453Z,-7.00
2023-02-06T04:15:35.735Z,-7.00
2023-02-06T04:18:05.170Z,-7.00
2023-02-06T04:20:34.264Z,-7.00
2023-02-06T04:23:02.278Z,-6.90
2023-02-06T04:25:30.330Z,-6.88
2023-02-06T04:27:59.359Z,-6.90
2023-02-06T04:30:27.377Z,-6.88
2023-02-06T04:32:55.455Z,-6.80
2023-02-06T04:35:23.496Z,-6.80
2023-02-06T04:37:51.604Z,-6.82
2023-02-06T04:40:19.683Z,-6.80
2023-02-06T04:42:47.741Z,-6.74
2023-02-06T04:45:15.912Z,-6.70
2023-02-06T04:47:43.990Z,-6.70
2023-02-06T04:50:12.461Z,-6.70
2023-02-06T04:52:40.540Z,-6.70
2023-02-06T04:55:09.018Z,-6.64
2023-02-06T04:57:37.661Z,-6.70
2023-02-06T05:00:06.371Z,-6.70
2023-02-06T05:02:39.831Z,-6.70
2023-02-06T05:05:09.189Z,-6.70
2023-02-06T05:07:37.256Z,-6.70
2023-02-06T05:10:05.428Z,-6.70
2023-02-06T05:12:33.390Z,-6.70
2023-02-06T05:15:01.370Z,-6.68
2023-02-06T05:17:29.429Z,-6.64
2023-02-06T05:19:58.521Z,-6.62
2023-02-06T05:22:26.704Z,-6.70
2023-02-06T05:24:54.672Z,-6.70
2023-02-06T05:27:22.884Z,-6.70
2023-02-06T05:29:51.018Z,-6.70
2023-02-06T05:32:19.596Z,-6.60
2023-02-06T05:34:47.876Z,-6.70
2023-02-06T05:37:15.872Z,-6.72
2023-02-06T05:39:44.069Z,-6.70
2023-02-06T05:42:12.089Z,-6.76
2023-02-06T05:44:40.165Z,-6.80
2023-02-06T05:47:08.345Z,-6.76
2023-02-06T05:49:36.509Z,-6.80
2023-02-06T05:52:04.683Z,-6.70
2023-02-06T05:54:32.633Z,-6.70
2023-02-06T05:57:00.577Z,-6.70
2023-02-06T05:59:28.589Z,-6.70
2023-02-06T06:01:56.976Z,-6.60
2023-02-06T06:04:25.385Z,-6.60
2023-02-06T06:06:53.439Z,-6.60
2023-02-06T06:09:21.586Z,-6.50
2023-02-06T06:11:51.333Z,-6.50
2023-02-06T06:14:19.265Z,-6.50
2023-02-06T06:16:47.340Z,-6.40
2023-02-06T06:19:15.777Z,-6.30
2023-02-06T06:21:44.113Z,-6.30
2023-02-06T06:24:12.158Z,-6.30
2023-02-06T06:26:43.232Z,-6.30
2023-02-06T06:29:11.282Z,-6.22
2023-02-06T06:31:39.491Z,-6.20
2023-02-06T06:34:07.468Z,-6.20
2023-02-06T06:36:35.687Z,-6.10
2023-02-06T06:39:03.801Z,-6.00
2023-02-06T06:41:31.968Z,-6.00
2023-02-06T06:44:00.447Z,-6.00
2023-02-06T06:46:28.663Z,-5.94
2023-02-06T06:48:59.225Z,-5.90
2023-02-06T06:51:30.592Z,-5.80
2023-02-06T06:54:00.314Z,-5.80
2023-02-06T06:56:28.537Z,-5.80
2023-02-06T06:58:56.626Z,-5.80
2023-02-06T07:01:24.719Z,-5.78
2023-02-06T07:03:52.741Z,-5.70
2023-02-06T07:06:20.739Z,-5.70
2023-02-06T07:08:48.645Z,-5.60
2023-02-06T07:11:17.808Z,-5.56
2023-02-06T07:13:45.858Z,-5.50
2023-02-06T07:16:13.973Z,-5.42
2023-02-06T07:18:43.130Z,-5.40
2023-02-06T07:21:11.350Z,-5.40
2023-02-06T07:23:40.827Z,-5.32
2023-02-06T07:26:09.925Z,-5.30
2023-02-06T07:28:42.341Z,-5.30
2023-02-06T07:31:10.506Z,-5.20
2023-02-06T07:33:38.528Z,-5.28
2023-02-06T07:36:10.698Z,-5.20
2023-02-06T07:38:38.635Z,-5.20
2023-02-06T07:41:06.658Z,-5.10
2023-02-06T07:43:34.724Z,-5.10
2023-02-06T07:46:04.241Z,-5.08
2023-02-06T07:48:32.390Z,-5.00
2023-02-06T07:51:07.836Z,-5.10
2023-02-06T07:53:36.117Z,-5.00
2023-02-06T07:56:14.455Z,-4.90
2023-02-06T07:58:42.432Z,-4.88
2023-02-06T08:01:10.964Z,-4.80
2023-02-06T08:03:39.147Z,-4.70
2023-02-06T08:06:11.833Z,-4.70
2023-02-06T08:08:39.790Z,-4.60
2023-02-06T08:11:08.730Z,-4.50
2023-02-06T08:13:36.877Z,-4.40
2023-02-06T08:16:28.804Z,-4.30
2023-02-06T08:18:57.988Z,-4.20
2023-02-06T08:21:29.120Z,-4.20
2023-02-06T08:23:58.178Z,-4.20
2023-02-06T08:26:27.597Z,-4.20
2023-02-06T08:28:56.142Z,-4.10
2023-02-06T08:31:29.003Z,-4.08
2023-02-06T08:33:57.305Z,-4.00
2023-02-06T08:36:25.930Z,-4.00
2023-02-06T08:38:54.014Z,-3.90
2023-02-06T08:41:24.884Z,-3.88
2023-02-06T08:43:54.969Z,-3.80
2023-02-06T08:46:24.469Z,-3.72
2023-02-06T08:48:57.063Z,-3.60
2023-02-06T08:51:28.087Z,-3.60
2023-02-06T08:54:00.901Z,-3.60
2023-02-06T08:56:29.673Z,-3.50
2023-02-06T08:59:01.832Z,-3.50
2023-02-06T09:01:31.268Z,-3.34
2023-02-06T09:04:01.693Z,-3.30
2023-02-06T09:06:29.949Z,-3.10
2023-02-06T09:09:00.974Z,-3.00
2023-02-06T09:11:30.065Z,-2.90
2023-02-06T09:13:59.060Z,-2.80
2023-02-06T09:16:28.052Z,-2.70
2023-02-06T09:18:58.167Z,-2.60
2023-02-06T09:21:26.248Z,-2.60
2023-02-06T09:23:59.435Z,-2.60
2023-02-06T09:26:31.305Z,-2.50
2023-02-06T09:29:00.589Z,-2.40
2023-02-06T09:31:33.091Z,-2.34
2023-02-06T09:34:01.177Z,-2.30
2023-02-06T09:36:30.439Z,-2.20
2023-02-06T09:38:58.716Z,-2.20
2023-02-06T09:41:26.590Z,-2.10
2023-02-06T09:43:59.118Z,-2.00
2023-02-06T09:46:31.514Z,-2.00
2023-02-06T09:49:02.249Z,-2.00
2023-02-06T09:51:56.037Z,-1.90
2023-02-06T09:55:05.982Z,-1.90
2023-02-06T09:57:47.590Z,-1.80
2023-02-06T10:00:38.839Z,-1.70
2023-02-06T10:03:42.513Z,-1.52
2023-02-06T10:06:21.224Z,-1.50
2023-02-06T10:09:18.281Z,-1.40
2023-02-06T10:12:16.740Z,-1.30
2023-02-06T10:14:48.912Z,-1.20
2023-02-06T10:17:31.605Z,-1.20
2023-02-06T10:20:14.951Z,-1.10
2023-02-06T10:22:45.041Z,-1.20
2023-02-06T10:25:29.625Z,-1.10
2023-02-06T10:27:59.642Z,-1.10
2023-02-06T10:30:45.155Z,-0.98
2023-02-06T10:33:25.273Z,-0.90
2023-02-06T10:36:03.491Z,-0.90
2023-02-06T10:38:51.918Z,-0.80
2023-02-06T10:41:35.166Z,-0.80
2023-02-06T10:44:11.555Z,-0.60
2023-02-06T10:46:50.844Z,-0.50
2023-02-06T10:49:23.247Z,-0.36
2023-02-06T10:51:53.689Z,-0.20
2023-02-06T10:54:36.624Z,-0.10
2023-02-06T10:57:05.395Z,0.10
2023-02-06T10:59:35.716Z,0.20
2023-02-06T11:02:12.750Z,0.26
2023-02-06T11:04:44.092Z,0.30
2023-02-06T11:07:39.683Z,0.30
2023-02-06T11:10:08.342Z,0.30
2023-02-06T11:12:40.165Z,0.32
2023-02-06T11:15:20.953Z,0.34
2023-02-06T11:17:49.257Z,0.30
2023-02-06T11:20:24.097Z,0.32
2023-02-06T11:22:53.652Z,0.48
2023-02-06T11:25:27.138Z,0.40
2023-02-06T11:27:56.104Z,0.32
2023-02-06T11:30:36.472Z,0.28
2023-02-06T11:33:20.004Z,0.20
2023-02-06T11:35:54.985Z,0.14
2023-02-06T11:38:24.549Z,0.20
2023-02-06T11:41:05.489Z,0.20
2023-02-06T11:43:46.679Z,0.42
2023-02-06T11:46:35.538Z,0.12
2023-02-06T11:49:20.371Z,0.00
2023-02-06T11:51:55.413Z,0.00
2023-02-06T11:54:35.117Z,-0.10
2023-02-06T11:57:19.844Z,-0.10
2023-02-06T11:59:52.278Z,0.00
2023-02-06T12:02:31.281Z,0.20
2023-02-06T12:05:17.705Z,0.10
2023-02-06T12:08:00.775Z,0.06
2023-02-06T12:10:33.183Z,0.00
2023-02-06T12:13:07.289Z,0.10
2023-02-06T12:15:47.537Z,0.00
2023-02-06T12:18:37.154Z,0.00
2023-02-06T12:21:13.720Z,-0.16
2023-02-06T12:23:52.980Z,-0.10
2023-02-06T12:26:23.382Z,0.00
2023-02-06T12:29:15.878Z,0.02
2023-02-06T12:31:50.597Z,0.10
2023-02-06T12:34:25.074Z,0.20
2023-02-06T12:37:00.810Z,0.20
2023-02-06T12:39:32.030Z,0.00
2023-02-06T12:42:03.303Z,-0.20
2023-02-06T12:44:41.782Z,0.00
2023-02-06T12:47:21.679Z,0.02
2023-02-06T12:49:53.560Z,0.12
2023-02-06T12:52:41.495Z,0.20
2023-02-06T12:55:12.627Z,0.30
2023-02-06T12:57:40.881Z,0.30
2023-02-06T13:00:55.348Z,0.30
2023-02-06T13:03:35.698Z,0.30
2023-02-06T13:06:10.336Z,0.40
2023-02-06T13:08:41.986Z,0.40
2023-02-06T13:11:17.503Z,0.32
2023-02-06T13:13:45.685Z,0.30
2023-02-06T13:16:13.740Z,0.22
2023-02-06T13:18:41.983Z,0.10
2023-02-06T13:21:15.257Z,0.10
2023-02-06T13:24:06.821Z,0.26
2023-02-06T13:26:53.775Z,0.30
2023-02-06T13:29:25.635Z,0.40
2023-02-06T13:32:20.334Z,0.30
2023-02-06T13:34:53.831Z,0.16
2023-02-06T13:37:34.254Z,0.08
2023-02-06T13:40:24.276Z,0.08
2023-02-06T13:43:07.561Z,-0.06
2023-02-06T13:45:51.714Z,-0.08
2023-02-06T13:48:47.678Z,0.10
2023-02-06T13:51:50.386Z,0.10
2023-02-06T13:54:30.861Z,0.20
2023-02-06T13:57:36.987Z,0.30
2023-02-06T14:00:15.888Z,0.20
2023-02-06T14:02:51.148Z,0.30
2023-02-06T14:05:23.847Z,0.20
2023-02-06T14:08:11.055Z,0.08
2023-02-06T14:11:36.371Z,0.10
2023-02-06T14:14:28.601Z,0.02
2023-02-06T14:17:29.180Z,-0.10
2023-02-06T14:20:08.363Z,-0.10
2023-02-06T14:22:44.727Z,-0.20
2023-02-06T14:25:58.468Z,-0.24
2023-02-06T14:28:48.572Z,-0.30
2023-02-06T14:31:52.632Z,-0.30
2023-02-06T14:34:26.983Z,-0.40
2023-02-06T14:37:20.557Z,-0.38
2023-02-06T14:39:55.212Z,-0.40
2023-02-06T14:42:37.480Z,-0.42
2023-02-06T14:45:23.883Z,-0.50
2023-02-06T14:47:52.677Z,-0.52
2023-02-06T14:50:30.156Z,-0.56
2023-02-06T14:53:09.351Z,-0.60
2023-02-06T14:55:41.590Z,-0.70
2023-02-06T14:58:24.842Z,-0.70
2023-02-06T15:00:57.244Z,-0.72
2023-02-06T15:03:26.068Z,-0.80
2023-02-06T15:06:07.388Z,-0.80
2023-02-06T15:08:35.398Z,-0.82
2023-02-06T15:11:15.093Z,-0.90
2023-02-06T15:13:49.611Z,-0.90
2023-02-06T15:16:17.826Z,-0.90
2023-02-06T15:18:45.908Z,-0.90
2023-02-06T15:21:16.091Z,-0.94
2023-02-06T15:24:02.602Z,-1.00
2023-02-06T15:26:36.513Z,-1.08
2023-02-06T15:29:05.948Z,-1.10
2023-02-06T15:31:34.050Z,-1.10
2023-02-06T15:34:02.097Z,-1.20
2023-02-06T15:36:33.764Z,-1.20
2023-02-06T15:39:07.850Z,-1.28
2023-02-06T15:41:35.872Z,-1.30
2023-02-06T15:44:22.257Z,-1.30
2023-02-06T15:46:50.600Z,-1.38
2023-02-06T15:49:20.024Z,-1.40
2023-02-06T15:51:53.643Z,-1.40
2023-02-06T15:54:22.920Z,-1.44
2023-02-06T15:56:54.815Z,-1.50
2023-02-06T15:59:25.341Z,-1.50
2023-02-06T16:01:54.681Z,-1.50
2023-02-06T16:04:29.628Z,-1.50
2023-02-06T16:07:19.441Z,-1.56
2023-02-06T16:09:53.921Z,-1.58
2023-02-06T16:12:22.105Z,-1.60
2023-02-06T16:15:00.418Z,-1.70
2023-02-06T16:17:33.572Z,-1.70
2023-02-06T16:20:33.415Z,-1.70
2023-02-06T16:23:20.381Z,-1.60
2023-02-06T16:25:58.880Z,-1.70
2023-02-06T16:28:27.644Z,-1.70
2023-02-06T16:31:00.399Z,-1.70
2023-02-06T16:33:38.377Z,-1.80
2023-02-06T16:36:06.951Z,-1.88
2023-02-06T16:38:35.072Z,-1.90
2023-02-06T16:41:03.450Z,-1.90
2023-02-06T16:43:31.524Z,-1.90
2023-02-06T16:46:02.347Z,-1.94
2023-02-06T16:48:30.524Z,-2.00
2023-02-06T16:50:58.570Z,-2.14
2023-02-06T16:53:26.569Z,-2.10
2023-02-06T16:55:54.491Z,-2.10
2023-02-06T16:58:23.558Z,-2.20
2023-02-06T17:00:51.595Z,-2.20
2023-02-06T17:03:19.537Z,-2.20
2023-02-06T17:05:48.585Z,-2.28
2023-02-06T17:08:23.778Z,-2.30
2023-02-06T17:10:51.870Z,-2.30
2023-02-06T17:13:23.535Z,-2.30
2023-02-06T17:15:54.631Z,-2.30
2023-02-06T17:18:23.611Z,-2.40
2023-02-06T17:20:52.916Z,-2.40
2023-02-06T17:23:21.376Z,-2.50
2023-02-06T17:25:49.928Z,-2.50
2023-02-06T17:28:19.593Z,-2.50
2023-02-06T17:30:49.100Z,-2.50
2023-02-06T17:33:17.939Z,-2.60
2023-02-06T17:35:46.410Z,-2.60
2023-02-06T17:38:14.443Z,-2.60
2023-02-06T17:40:42.486Z,-2.74
2023-02-06T17:43:11.034Z,-2.80
2023-02-06T17:45:39.728Z,-2.80
2023-02-06T17:48:08.097Z,-2.80
2023-02-06T17:50:37.597Z,-2.80
2023-02-06T17:53:07.213Z,-2.88
2023-02-06T17:55:35.390Z,-2.94
2023-02-06T17:58:04.160Z,-3.00
2023-02-06T18:00:32.506Z,-3.02
2023-02-06T18:03:00.726Z,-3.10
2023-02-06T18:05:29.065Z,-3.10
2023-02-06T18:07:57.110Z,-3.20
2023-02-06T18:10:25.414Z,-3.20
2023-02-06T18:12:53.510Z,-3.30
2023-02-06T18:15:21.590Z,-3.30
2023-02-06T18:17:49.716Z,-3.40
2023-02-06T18:20:17.936Z,-3.30
2023-02-06T18:22:47.137Z,-3.30
2023-02-06T18:25:15.620Z,-3.30
2023-02-06T18:27:46.091Z,-3.40
2023-02-06T18:30:14.956Z,-3.40
2023-02-06T18:32:43.144Z,-3.40
2023-02-06T18:35:11.129Z,-3.50
2023-02-06T18:37:39.168Z,-3.54
2023-02-06T18:40:07.927Z,-3.60
2023-02-06T18:42:54.718Z,-3.60
2023-02-06T18:45:24.591Z,-3.70
2023-02-06T18:47:52.598Z,-3.70
2023-02-06T18:50:21.897Z,-3.78
2023-02-06T18:52:50.325Z,-3.82
2023-02-06T18:55:18.602Z,-3.88
2023-02-06T18:57:46.686Z,-3.80
2023-02-06T19:00:15.765Z,-3.88
2023-02-06T19:02:43.748Z,-3.96
2023-02-06T19:05:11.961Z,-4.00
2023-02-06T19:07:40.056Z,-4.00
2023-02-06T19:10:16.202Z,-4.02
2023-02-06T19:12:44.843Z,-4.10
2023-02-06T19:15:14.474Z,-4.10
2023-02-06T19:17:42.617Z,-4.10
2023-02-06T19:20:11.804Z,-4.10
2023-02-06T19:22:40.088Z,-4.16
2023-02-06T19:25:11.362Z,-4.20
2023-02-06T19:27:40.077Z,-4.20
2023-02-06T19:30:09.193Z,-4.20
2023-02-06T19:32:37.243Z,-4.20
2023-02-06T19:35:05.693Z,-4.20
2023-02-06T19:37:33.621Z,-4.30
2023-02-06T19:40:01.592Z,-4.30
2023-02-06T19:42:29.698Z,-4.40
2023-02-06T19:44:57.736Z,-4.50
2023-02-06T19:47:25.837Z,-4.50
2023-02-06T19:49:53.808Z,-4.50
2023-02-06T19:52:21.732Z,-4.50
2023-02-06T19:54:49.858Z,-4.50
2023-02-06T19:57:19.450Z,-4.50
2023-02-06T19:59:47.463Z,-4.50
2023-02-06T20:02:15.733Z,-4.50
2023-02-06T20:04:45.295Z,-4.50
2023-02-06T20:07:13.255Z,-4.50
2023-02-06T20:09:42.442Z,-4.50
2023-02-06T20:12:12.677Z,-4.50
2023-02-06T20:14:40.731Z,-4.60
2023-02-06T20:17:08.690Z,-4.60
2023-02-06T20:19:36.743Z,-4.70
2023-02-06T20:22:04.985Z,-4.70
2023-02-06T20:24:33.121Z,-4.70
2023-02-06T20:27:04.388Z,-4.80
2023-02-06T20:29:35.131Z,-4.80
2023-02-06T20:32:04.150Z,-4.84
2023-02-06T20:34:32.283Z,-4.88
2023-02-06T20:37:00.313Z,-4.90
2023-02-06T20:39:28.784Z,-4.88
2023-02-06T20:41:56.909Z,-4.90
2023-02-06T20:44:24.991Z,-4.90
2023-02-06T20:46:53.770Z,-4.90
2023-02-06T20:49:24.395Z,-4.92
2023-02-06T20:51:53.216Z,-5.00
2023-02-06T20:54:21.415Z,-5.00
2023-02-06T20:56:51.100Z,-5.00
2023-02-06T20:59:19.721Z,-5.06
2023-02-06T21:01:50.271Z,-5.10
2023-02-06T21:04:20.064Z,-5.10
2023-02-06T21:06:50.019Z,-5.10
2023-02-06T21:09:18.463Z,-5.10
2023-02-06T21:11:48.059Z,-5.12
2023-02-06T21:14:16.241Z,-5.20
2023-02-06T21:16:44.372Z,-5.20
2023-02-06T21:19:13.778Z,-5.22
2023-02-06T21:21:45.592Z,-5.30
2023-02-06T21:24:15.808Z,-5.30
2023-02-06T21:26:43.797Z,-5.30
2023-02-06T21:29:13.434Z,-5.28
2023-02-06T21:31:41.999Z,-5.30
2023-02-06T21:34:19.731Z,-5.30
2023-02-06T21:36:48.331Z,-5.30
2023-02-06T21:39:19.221Z,-5.30
2023-02-06T21:41:47.751Z,-5.30
2023-02-06T21:44:15.762Z,-5.30
2023-02-06T21:46:46.516Z,-5.30
2023-02-06T21:49:14.708Z,-5.40
2023-02-06T21:51:42.797Z,-5.30
2023-02-06T21:54:10.956Z,-5.30
2023-02-06T21:56:39.152Z,-5.30
2023-02-06T21:59:07.565Z,-5.30
2023-02-06T22:01:35.843Z,-5.30
2023-02-06T22:04:03.995Z,-5.36
2023-02-06T22:06:32.369Z,-5.40
2023-02-06T22:09:07.601Z,-5.40
2023-02-06T22:11:37.040Z,-5.30
2023-02-06T22:14:07.555Z,-5.40
2023-02-06T22:16:35.993Z,-5.40
2023-02-06T22:19:05.142Z,-5.50
2023-02-06T22:21:34.178Z,-5.60
2023-02-06T22:24:06.687Z,-5.60
2023-02-06T22:26:38.652Z,-5.70
2023-02-06T22:29:08.204Z,-5.60
2023-02-06T22:31:36.415Z,-5.60
2023-02-06T22:34:04.578Z,-5.60
2023-02-06T22:36:33.076Z,-5.58
2023-02-06T22:39:03.368Z,-5.60
2023-02-06T22:41:31.393Z,-5.66
2023-02-06T22:43:59.379Z,-5.70
2023-02-06T22:46:29.843Z,-5.76
2023-02-06T22:48:58.237Z,-5.80
2023-02-06T22:51:26.742Z,-5.90
2023-02-06T22:53:55.073Z,-5.90
2023-02-06T22:56:36.864Z,-6.02
2023-02-06T22:59:05.035Z,-6.10
2023-02-06T23:01:36.050Z,-6.10
2023-02-06T23:04:05.274Z,-6.14
2023-02-06T23:06:33.740Z,-6.10
2023-02-06T23:09:02.411Z,-6.20
2023-02-06T23:11:31.909Z,-6.20
2023-02-06T23:14:01.427Z,-6.20
2023-02-06T23:16:29.753Z,-6.16
2023-02-06T23:18:58.108Z,-6.20
2023-02-06T23:21:27.307Z,-6.20
2023-02-06T23:23:56.750Z,-6.20
2023-02-06T23:26:24.710Z,-6.20
2023-02-06T23:28:52.798Z,-6.20
2023-02-06T23:31:22.850Z,-6.20
2023-02-06T23:33:51.140Z,-6.20
2023-02-06T23:36:21.380Z,-6.20
2023-02-06T23:38:49.451Z,-6.24
2023-02-06T23:41:19.717Z,-6.20
2023-02-06T23:43:55.228Z,-6.10
2023-02-06T23:46:23.611Z,-6.10
2023-02-06T23:48:51.852Z,-6.10
2023-02-06T23:51:20.839Z,-6.16
2023-02-06T23:53:49.084Z,-6.20
2023-02-06T23:56:21.238Z,-6.22
2023-02-06T23:58:49.469Z,-6.30
